Time;durP1;ratioP1;P1;durP2;ratioP2;P2;SDS_P1;SDS_P2;PMS_P1;PMS_P2;Temp;Humidity;BMP_temperature;BMP_pressure;BME280_temperature;BME280_humidity;BME280_pressure;Samples;Min_cycle;Max_cycle;Signal;HPM_P1;HPM_P2
2022/01/13 00:01:41;;;;;;;0.40;0.30;;;;;;;4.80;100.00;103080.28;5096293;28;20476;-73
2022/01/13 00:04:10;;;;;;;0.40;0.30;;;;;;;4.83;100.00;103089.78;5096415;28;20494;-73
2022/01/13 00:06:37;;;;;;;0.40;0.20;;;;;;;4.84;100.00;103094.94;5096179;28;20489;-74
2022/01/13 00:09:05;;;;;;;0.40;0.20;;;;;;;4.84;100.00;103091.44;5096012;28;20436;-72
2022/01/13 00:11:31;;;;;;;0.40;0.20;;;;;;;4.87;100.00;103078.44;5096301;28;20452;-74
2022/01/13 00:14:22;;;;;;;0.40;0.30;;;;;;;4.89;100.00;103078.25;5096215;28;20521;-73
2022/01/13 00:19:45;;;;;;;0.40;0.30;;;;;;;4.90;100.00;103078.03;5094931;28;20810;-73
2022/01/13 00:22:19;;;;;;;0.40;0.30;;;;;;;4.92;100.00;103075.16;5095767;28;20992;-74
2022/01/13 00:24:49;;;;;;;0.40;0.23;;;;;;;4.91;100.00;103073.47;5096108;28;20436;-74
2022/01/13 00:27:16;;;;;;;0.40;0.30;;;;;;;4.93;100.00;103077.63;5095710;28;20914;-74
2022/01/13 00:29:45;;;;;;;0.40;0.30;;;;;;;4.96;100.00;103071.88;5096210;28;20822;-74
2022/01/13 00:32:13;;;;;;;0.40;0.30;;;;;;;4.99;100.00;103071.44;5095813;28;20469;-74
2022/01/13 00:34:40;;;;;;;0.40;0.30;;;;;;;4.98;100.00;103068.97;5095975;28;20637;-74
2022/01/13 00:37:06;;;;;;;0.40;0.30;;;;;;;5.00;100.00;103065.06;5095839;28;20439;-74
2022/01/13 00:39:34;;;;;;;0.50;0.30;;;;;;;4.97;100.00;103057.41;5096098;28;20444;-74
2022/01/13 00:42:01;;;;;;;1.53;1.43;;;;;;;4.96;100.00;103054.94;5095573;28;20487;-74
2022/01/13 00:44:27;;;;;;;0.40;0.30;;;;;;;4.97;100.00;103062.78;5095680;28;20566;-74
2022/01/13 00:46:58;;;;;;;0.40;0.20;;;;;;;4.98;100.00;103050.16;5095372;28;20833;-74
2022/01/13 00:49:25;;;;;;;0.40;0.30;;;;;;;4.99;100.00;103068.75;5095569;28;20929;-75
2022/01/13 00:51:52;;;;;;;0.40;0.30;;;;;;;4.97;100.00;103059.25;5095513;28;20469;-73
2022/01/13 00:54:19;;;;;;;0.40;0.20;;;;;;;4.98;100.00;103052.84;5095481;28;20447;-74
2022/01/13 00:56:47;;;;;;;0.40;0.20;;;;;;;5.01;100.00;103055.16;5095406;28;20791;-74
2022/01/13 00:59:15;;;;;;;0.40;0.30;;;;;;;5.02;100.00;103060.31;5095398;28;20448;-73
2022/01/13 01:01:44;;;;;;;1.23;1.13;;;;;;;5.01;100.00;103050.59;5094940;28;20966;-74
2022/01/13 01:04:10;;;;;;;0.40;0.30;;;;;;;5.02;100.00;103046.88;5095318;28;20456;-74
2022/01/13 01:06:37;;;;;;;0.50;0.40;;;;;;;5.02;100.00;103033.44;5095002;28;20436;-74
2022/01/13 01:09:05;;;;;;;0.40;0.30;;;;;;;5.03;100.00;103045.00;5095310;28;20428;-74
2022/01/13 01:11:32;;;;;;;0.40;0.30;;;;;;;5.04;100.00;103046.66;5095165;28;20448;-74
2022/01/13 01:14:02;;;;;;;0.40;0.20;;;;;;;5.05;100.00;103051.03;5095168;28;20464;-74
2022/01/13 01:16:30;;;;;;;0.40;0.30;;;;;;;5.05;100.00;103059.09;5094751;28;20951;-73
2022/01/13 01:19:03;;;;;;;0.40;0.23;;;;;;;5.04;100.00;103052.03;5094726;28;20934;-73
2022/01/13 01:21:48;;;;;;;4.83;3.60;;;;;;;5.01;100.00;103047.91;5095199;28;20492;-72
2022/01/13 01:24:31;;;;;;;0.40;0.20;;;;;;;4.98;100.00;103051.00;5095027;28;20517;-73
2022/01/13 01:27:03;;;;;;;0.40;0.30;;;;;;;5.00;100.00;103051.63;5094922;28;20457;-73
2022/01/13 01:29:36;;;;;;;0.40;0.30;;;;;;;5.00;100.00;103048.09;5094444;28;20798;-73
2022/01/13 01:32:08;;;;;;;0.40;0.30;;;;;;;5.01;100.00;103042.53;5094778;28;20483;-74
2022/01/13 01:34:49;;;;;;;0.40;0.20;;;;;;;4.97;100.00;103045.84;5094890;28;20577;-73
2022/01/13 01:37:17;;;;;;;0.50;0.40;;;;;;;5.01;100.00;103055.16;5094704;28;20486;-73
2022/01/13 01:39:46;;;;;;;0.40;0.20;;;;;;;5.03;100.00;103058.44;5094613;28;20440;-72
2022/01/13 01:42:13;;;;;;;0.40;0.30;;;;;;;5.01;100.00;103047.09;5094391;28;20456;-73
2022/01/13 01:44:43;;;;;;;0.40;0.30;;;;;;;4.94;100.00;103043.53;5094502;28;20444;-74
2022/01/13 01:47:13;;;;;;;0.40;0.20;;;;;;;4.96;100.00;103047.69;5094536;28;20440;-73
2022/01/13 01:49:41;;;;;;;0.40;0.30;;;;;;;5.00;100.00;103043.56;5094268;28;20455;-72
2022/01/13 01:52:09;;;;;;;0.40;0.30;;;;;;;5.01;100.00;103055.16;5094272;28;20953;-72
2022/01/13 01:54:36;;;;;;;0.40;0.30;;;;;;;4.98;100.00;103036.75;5094016;28;20989;-73
2022/01/13 01:57:04;;;;;;;0.60;0.30;;;;;;;4.95;100.00;103042.50;5094350;28;20469;-72
2022/01/13 01:59:33;;;;;;;0.40;0.30;;;;;;;4.94;100.00;103047.06;5094250;28;20432;-73
2022/01/13 02:02:01;;;;;;;0.40;0.20;;;;;;;4.96;100.00;103049.56;5093850;28;20468;-73
2022/01/13 02:04:28;;;;;;;0.40;0.20;;;;;;;4.95;100.00;103054.06;5094188;28;20440;-72
2022/01/13 02:06:56;;;;;;;0.40;0.20;;;;;;;4.99;100.00;103049.97;5093794;28;20450;-72
2022/01/13 02:09:24;;;;;;;0.40;0.30;;;;;;;4.98;100.00;103051.00;5093188;28;20552;-73
2022/01/13 02:11:56;;;;;;;0.40;0.30;;;;;;;4.92;100.00;103040.25;5093911;28;20440;-73
2022/01/13 02:14:34;;;;;;;0.40;0.27;;;;;;;4.92;100.00;103042.94;5093950;28;20421;-73
2022/01/13 02:17:07;;;;;;;0.40;0.30;;;;;;;4.88;100.00;103029.06;5094148;28;20440;-73
2022/01/13 02:19:37;;;;;;;0.40;0.23;;;;;;;4.93;100.00;103028.47;5093928;28;20469;-73
2022/01/13 02:22:05;;;;;;;0.40;0.23;;;;;;;4.93;100.00;103012.34;5093769;28;20455;-73
2022/01/13 02:24:32;;;;;;;0.40;0.30;;;;;;;4.91;100.00;103009.84;5093410;28;21023;-74
2022/01/13 02:26:58;;;;;;;0.40;0.20;;;;;;;4.94;100.00;103009.47;5093803;28;20440;-74
2022/01/13 02:29:25;;;;;;;0.40;0.20;;;;;;;4.94;100.00;103014.81;5093751;28;20444;-72
2022/01/13 02:31:52;;;;;;;0.70;0.70;;;;;;;4.97;100.00;103009.06;5093631;28;20452;-73
2022/01/13 02:34:19;;;;;;;0.40;0.30;;;;;;;4.98;100.00;102999.97;5093784;28;20476;-73
2022/01/13 02:36:46;;;;;;;0.40;0.30;;;;;;;4.98;100.00;102996.47;5093600;28;20858;-74
2022/01/13 02:39:14;;;;;;;0.40;0.20;;;;;;;4.98;100.00;103001.81;5093564;28;20448;-74
2022/01/13 02:41:41;;;;;;;0.40;0.30;;;;;;;5.04;100.00;103003.69;5092804;28;20455;-74
2022/01/13 02:44:14;;;;;;;0.40;0.30;;;;;;;5.07;100.00;102993.38;5093402;28;20534;-74
2022/01/13 02:47:06;;;;;;;0.40;0.27;;;;;;;5.05;100.00;102989.25;5093528;28;20465;-74
2022/01/13 02:49:33;;;;;;;0.40;0.30;;;;;;;5.06;100.00;102980.16;5093498;28;20437;-74
2022/01/13 02:51:59;;;;;;;0.40;0.30;;;;;;;5.02;100.00;102985.09;5093659;28;20448;-73
2022/01/13 02:54:27;;;;;;;0.40;0.30;;;;;;;5.05;100.00;102976.63;5093323;28;20941;-74
2022/01/13 02:56:54;;;;;;;0.50;0.40;;;;;;;5.04;100.00;102974.13;5093099;28;20990;-73
2022/01/13 02:59:20;;;;;;;0.40;0.30;;;;;;;5.04;100.00;102976.81;5093671;28;20441;-73
2022/01/13 03:01:47;;;;;;;0.50;0.47;;;;;;;4.93;100.00;102966.69;5093140;28;20441;-73
2022/01/13 03:04:13;;;;;;;0.40;0.30;;;;;;;4.90;100.00;102975.97;5093215;28;20499;-73
2022/01/13 03:06:41;;;;;;;0.50;0.30;;;;;;;4.91;100.00;102961.53;5093320;28;20432;-73
2022/01/13 03:09:10;;;;;;;0.40;0.27;;;;;;;4.92;100.00;102957.00;5093363;28;20437;-73
2022/01/13 03:11:38;;;;;;;0.40;0.30;;;;;;;4.93;100.00;102953.28;5093221;28;20444;-73
2022/01/13 03:14:08;;;;;;;0.40;0.23;;;;;;;4.90;100.00;102951.81;5093142;28;20456;-72
2022/01/13 03:16:35;;;;;;;0.40;0.30;;;;;;;4.92;100.00;102962.38;5093242;28;20536;-73
2022/01/13 03:19:02;;;;;;;0.40;0.30;;;;;;;4.91;100.00;102966.88;5093209;28;20497;-73
2022/01/13 03:21:28;;;;;;;0.40;0.30;;;;;;;4.94;100.00;102976.41;5093227;28;20445;-73
2022/01/13 03:23:54;;;;;;;2.20;2.10;;;;;;;4.90;100.00;102965.25;5092933;28;20484;-72
2022/01/13 03:26:22;;;;;;;0.70;0.70;;;;;;;4.89;100.00;102960.91;5093164;28;20941;-73
2022/01/13 03:29:04;;;;;;;0.40;0.30;;;;;;;4.90;100.00;102964.41;5093137;28;20436;-73
2022/01/13 03:31:31;;;;;;;0.40;0.30;;;;;;;4.86;100.00;102953.25;5093136;28;20505;-73
2022/01/13 03:33:57;;;;;;;0.40;0.30;;;;;;;4.87;100.00;102951.38;5092965;28;20460;-73
2022/01/13 03:36:24;;;;;;;0.40;0.30;;;;;;;4.87;100.00;102954.06;5094382;28;20440;-72
2022/01/13 03:38:51;;;;;;;0.40;0.27;;;;;;;4.89;100.00;102946.66;5093190;28;20447;-73
2022/01/13 03:41:19;;;;;;;0.40;0.20;;;;;;;4.89;100.00;102954.72;5092954;28;20444;-73
2022/01/13 03:43:46;;;;;;;0.60;0.60;;;;;;;4.86;100.00;102960.47;5092811;28;20562;-73
2022/01/13 03:46:15;;;;;;;0.40;0.30;;;;;;;4.82;100.00;102962.75;5091980;28;20555;-72
2022/01/13 03:48:42;;;;;;;0.40;0.20;;;;;;;4.83;100.00;102955.53;5092827;28;20436;-73
2022/01/13 03:51:09;;;;;;;0.40;0.30;;;;;;;4.85;100.00;102954.28;5092951;28;20461;-73
2022/01/13 03:54:49;;;;;;;0.40;0.30;;;;;;;4.84;100.00;102958.00;5096083;28;20460;-73
2022/01/13 03:57:57;;;;;;;0.40;0.30;;;;;;;4.78;100.00;102948.94;5096660;28;20451;-73
2022/01/13 04:01:07;;;;;;;0.40;0.20;;;;;;;4.76;100.00;102945.59;5096594;28;20424;-73
2022/01/13 04:03:35;;;;;;;0.40;0.30;;;;;;;4.70;100.00;102953.66;5096052;28;20541;-73
2022/01/13 04:06:08;;;;;;;0.40;0.27;;;;;;;4.69;100.00;102950.16;5096437;28;20444;-73
2022/01/13 04:08:36;;;;;;;0.40;0.30;;;;;;;4.68;100.00;102937.72;5096124;28;20894;-73
2022/01/13 04:11:16;;;;;;;0.40;0.27;;;;;;;4.72;100.00;102922.06;5096365;28;20451;-72
2022/01/13 04:13:53;;;;;;;0.40;0.30;;;;;;;4.72;100.00;102930.94;5096221;28;20463;-70
2022/01/13 04:16:24;;;;;;;0.40;0.30;;;;;;;4.73;100.00;102932.56;5096304;28;20436;-69
2022/01/13 04:18:53;;;;;;;0.40;0.20;;;;;;;4.75;100.00;102938.59;5096220;28;20441;-73
2022/01/13 04:21:20;;;;;;;0.40;0.30;;;;;;;4.70;100.00;102927.63;5095835;28;20997;-72
2022/01/13 04:23:47;;;;;;;0.40;0.30;;;;;;;4.72;100.00;102932.78;5095995;28;20853;-75
2022/01/13 04:26:18;;;;;;;0.40;0.20;;;;;;;4.71;100.00;102929.28;5096268;28;20444;-75
2022/01/13 04:28:44;;;;;;;0.40;0.30;;;;;;;4.65;100.00;102913.16;5096040;28;20428;-74
2022/01/13 04:31:11;;;;;;;0.40;0.20;;;;;;;4.66;100.00;102912.97;5095958;28;20506;-74
2022/01/13 04:33:39;;;;;;;2.87;2.67;;;;;;;4.64;100.00;102916.88;5095919;28;20452;-74
2022/01/13 04:36:09;;;;;;;11.23;2.83;;;;;;;4.60;100.00;102912.94;5095546;28;20448;-74
2022/01/13 04:38:35;;;;;;;0.40;0.20;;;;;;;4.64;100.00;102906.13;5095801;28;20472;-75
2022/01/13 04:41:04;;;;;;;0.40;0.30;;;;;;;4.68;100.00;102918.94;5096009;28;20448;-74
2022/01/13 04:43:32;;;;;;;0.40;0.30;;;;;;;4.65;100.00;102914.00;5095602;28;20484;-74
2022/01/13 04:45:59;;;;;;;1.30;1.20;;;;;;;4.64;100.00;102920.38;5095722;28;20436;-74
2022/01/13 04:48:26;;;;;;;0.40;0.20;;;;;;;4.62;100.00;102914.41;5095905;28;20449;-74
2022/01/13 04:50:52;;;;;;;0.40;0.30;;;;;;;4.65;100.00;102919.38;5095880;28;20437;-74
2022/01/13 04:53:20;;;;;;;0.40;0.20;;;;;;;4.61;100.00;102925.34;5095181;28;20996;-74
2022/01/13 04:55:51;;;;;;;0.40;0.30;;;;;;;4.57;100.00;102916.88;5095456;28;20449;-74
2022/01/13 04:58:21;;;;;;;0.50;0.30;;;;;;;4.57;100.00;102924.91;5095501;28;20425;-74
2022/01/13 05:00:48;;;;;;;0.40;0.30;;;;;;;4.55;100.00;102926.97;5095359;28;20448;-74
2022/01/13 05:03:14;;;;;;;0.40;0.30;;;;;;;4.51;100.00;102917.66;5094406;28;20492;-75
2022/01/13 05:05:40;;;;;;;0.40;0.30;;;;;;;4.50;100.00;102911.47;5094575;28;20941;-75
2022/01/13 05:08:07;;;;;;;0.77;0.77;;;;;;;4.53;100.00;102904.88;5095296;28;20440;-75
2022/01/13 05:10:35;;;;;;;0.40;0.20;;;;;;;4.54;100.00;102896.63;5095366;28;20440;-74
2022/01/13 05:13:03;;;;;;;0.40;0.20;;;;;;;4.55;100.00;102906.31;5095098;28;20460;-74
2022/01/13 05:15:31;;;;;;;0.40;0.23;;;;;;;4.56;100.00;102907.16;5094697;28;20942;-74
2022/01/13 05:18:13;;;;;;;0.40;0.20;;;;;;;4.59;100.00;102906.75;5095175;28;20447;-75
2022/01/13 05:20:42;;;;;;;0.40;0.30;;;;;;;4.53;100.00;102910.25;5095099;28;20436;-74
2022/01/13 05:23:11;;;;;;;0.40;0.23;;;;;;;4.50;100.00;102906.09;5094527;28;20467;-74
2022/01/13 05:25:41;;;;;;;0.40;0.30;;;;;;;4.52;100.00;102900.56;5094600;28;20998;-74
2022/01/13 05:28:08;;;;;;;0.40;0.30;;;;;;;4.53;100.00;102899.50;5094895;28;20833;-74
2022/01/13 05:30:35;;;;;;;0.40;0.30;;;;;;;4.53;100.00;102899.50;5094859;28;20433;-74
2022/01/13 05:33:01;;;;;;;0.40;0.30;;;;;;;4.50;100.00;102890.00;5094692;28;20479;-74
2022/01/13 05:35:28;;;;;;;0.40;0.23;;;;;;;4.46;100.00;102893.28;5094731;28;20436;-74
2022/01/13 05:37:55;;;;;;;1.63;1.53;;;;;;;4.46;100.00;102914.75;5094627;28;20448;-74
2022/01/13 05:40:22;;;;;;;0.40;0.30;;;;;;;4.50;100.00;102918.69;5094315;28;20448;-74
2022/01/13 05:42:50;;;;;;;0.40;0.20;;;;;;;4.46;100.00;102918.28;5094579;28;20468;-74
2022/01/13 05:45:19;;;;;;;0.50;0.50;;;;;;;4.47;100.00;102924.47;5094569;28;20480;-74
2022/01/13 05:47:47;;;;;;;0.40;0.30;;;;;;;4.52;100.00;102924.72;5094128;28;20456;-73
2022/01/13 05:50:16;;;;;;;0.40;0.30;;;;;;;4.53;100.00;102926.34;5094431;28;20436;-70
2022/01/13 05:52:42;;;;;;;0.90;0.90;;;;;;;4.53;100.00;102926.34;5094282;28;20601;-73
2022/01/13 05:55:10;;;;;;;0.40;0.30;;;;;;;4.57;100.00;102905.31;5094030;28;20846;-72
2022/01/13 05:57:37;;;;;;;0.40;0.20;;;;;;;4.53;100.00;102918.31;5094118;28;20447;-72
2022/01/13 06:00:06;;;;;;;0.40;0.20;;;;;;;4.47;100.00;102914.59;5094232;28;20448;-72
2022/01/13 06:02:33;;;;;;;0.40;0.30;;;;;;;4.52;100.00;102897.88;5094152;28;20877;-72
2022/01/13 06:04:59;;;;;;;0.40;0.30;;;;;;;4.55;100.00;102892.91;5094075;28;20487;-71
2022/01/13 06:07:26;;;;;;;0.40;0.30;;;;;;;4.53;100.00;102902.19;5093788;28;20987;-72
2022/01/13 06:09:52;;;;;;;0.40;0.40;;;;;;;4.55;100.00;102894.75;5094078;28;20447;-72
2022/01/13 06:12:21;;;;;;;0.40;0.30;;;;;;;4.53;100.00;102891.47;5093986;28;20460;-71
2022/01/13 06:14:47;;;;;;;0.40;0.23;;;;;;;4.56;100.00;102899.13;5093942;28;20539;-71
2022/01/13 06:17:15;;;;;;;0.40;0.30;;;;;;;4.56;100.00;102901.81;5093956;28;20452;-71
2022/01/13 06:19:41;;;;;;;0.40;0.20;;;;;;;4.61;100.00;102903.88;5093899;28;20444;-71
2022/01/13 06:22:08;;;;;;;0.40;0.37;;;;;;;4.60;100.00;102904.88;5093773;28;20497;-70
2022/01/13 06:24:35;;;;;;;0.40;0.30;;;;;;;4.59;100.00;102912.09;5093761;28;20491;-70
2022/01/13 06:27:01;;;;;;;0.40;0.30;;;;;;;4.62;100.00;102918.94;5094008;28;20440;-72
2022/01/13 06:29:27;;;;;;;0.40;0.30;;;;;;;4.62;100.00;102922.44;5093674;28;20452;-70
2022/01/13 06:31:56;;;;;;;4.80;2.67;;;;;;;4.59;100.00;102925.53;5093612;28;20440;-71
2022/01/13 06:34:24;;;;;;;0.40;0.20;;;;;;;4.55;100.00;102919.72;5093639;28;20445;-71
2022/01/13 06:36:50;;;;;;;0.40;0.20;;;;;;;4.61;100.00;102917.28;5093561;28;20490;-71
2022/01/13 06:39:17;;;;;;;0.40;0.20;;;;;;;4.62;100.00;102917.09;5093747;28;20489;-70
2022/01/13 06:41:43;;;;;;;2.10;2.00;;;;;;;4.65;100.00;102930.09;5093646;28;20444;-71
2022/01/13 06:44:09;;;;;;;0.40;0.30;;;;;;;4.64;100.00;102928.44;5093351;28;20865;-71
2022/01/13 06:46:36;;;;;;;0.40;0.20;;;;;;;4.62;100.00;102935.88;5093517;28;20447;-71
2022/01/13 06:49:03;;;;;;;0.40;0.30;;;;;;;4.62;100.00;102935.88;5093420;28;20448;-71
2022/01/13 06:51:30;;;;;;;3.90;2.10;;;;;;;4.65;100.00;102943.53;5093445;28;20444;-71
2022/01/13 06:53:57;;;;;;;3.30;3.00;;;;;;;4.63;100.00;102950.13;5093324;28;20499;-71
2022/01/13 06:56:24;;;;;;;0.40;0.20;;;;;;;4.65;100.00;102929.25;5093357;28;20451;-71
2022/01/13 06:58:51;;;;;;;0.40;0.30;;;;;;;4.58;100.00;102942.66;5092962;28;20963;-73
2022/01/13 07:01:18;;;;;;;0.40;0.20;;;;;;;4.65;100.00;102943.53;5093091;28;20975;-70
2022/01/13 07:03:44;;;;;;;0.40;0.30;;;;;;;4.65;100.00;102934.63;5092873;28;21098;-72
2022/01/13 07:06:10;;;;;;;0.40;0.20;;;;;;;4.66;100.00;102937.13;5093373;28;20440;-72
2022/01/13 07:08:38;;;;;;;0.40;0.30;;;;;;;4.64;100.00;102933.78;5093319;28;20440;-72
2022/01/13 07:11:05;;;;;;;0.40;0.30;;;;;;;4.60;100.00;102935.22;5093248;28;20444;-72
2022/01/13 07:13:32;;;;;;;0.40;0.30;;;;;;;4.65;100.00;102935.47;5093156;28;20456;-71
2022/01/13 07:16:00;;;;;;;0.40;0.30;;;;;;;4.62;100.00;102941.25;5092921;28;20436;-71
2022/01/13 07:18:27;;;;;;;0.40;0.23;;;;;;;4.62;100.00;102929.69;5092907;28;20444;-71
2022/01/13 07:20:53;;;;;;;0.40;0.30;;;;;;;4.58;100.00;102921.19;5093144;28;20447;-71
2022/01/13 07:23:20;;;;;;;0.40;0.30;;;;;;;4.55;100.00;102924.28;5093031;28;20465;-72
2022/01/13 07:25:48;;;;;;;0.40;0.20;;;;;;;4.57;100.00;102932.16;5092897;28;20477;-72
2022/01/13 07:28:14;;;;;;;0.40;0.20;;;;;;;4.56;100.00;102942.06;5096114;28;20433;-72
2022/01/13 07:30:41;;;;;;;0.40;0.20;;;;;;;4.52;100.00;102940.81;5096879;28;21010;-72
2022/01/13 07:33:07;;;;;;;0.40;0.30;;;;;;;4.48;100.00;102940.38;5097064;28;20464;-72
2022/01/13 07:35:34;;;;;;;0.40;0.30;;;;;;;4.49;100.00;102946.56;5097032;28;20444;-73
2022/01/13 07:38:00;;;;;;;0.40;0.30;;;;;;;4.50;100.00;102953.59;5096712;28;20991;-72
2022/01/13 07:40:27;;;;;;;0.40;0.30;;;;;;;4.46;100.00;102955.00;5096859;28;20429;-72
2022/01/13 07:42:55;;;;;;;0.40;0.30;;;;;;;4.49;100.00;102968.03;5096890;28;20513;-72
2022/01/13 07:45:21;;;;;;;0.40;0.30;;;;;;;4.52;100.00;102967.66;5096857;28;20554;-73
2022/01/13 07:47:47;;;;;;;0.40;0.30;;;;;;;4.51;100.00;102955.22;5096823;28;20443;-73
2022/01/13 07:50:15;;;;;;;0.40;0.30;;;;;;;4.51;100.00;102944.50;5096848;28;20437;-72
2022/01/13 07:52:42;;;;;;;0.40;0.20;;;;;;;4.54;100.00;102954.84;5096661;28;20448;-73
2022/01/13 07:55:10;;;;;;;0.40;0.30;;;;;;;4.54;100.00;102960.22;5096698;28;20440;-72
2022/01/13 07:57:37;;;;;;;0.40;0.30;;;;;;;4.51;100.00;102937.28;5096909;28;20443;-73
2022/01/13 08:00:07;;;;;;;14.17;13.07;;;;;;;4.51;100.00;102945.31;5096546;28;20814;-72
2022/01/13 08:02:33;;;;;;;0.40;0.23;;;;;;;4.53;100.00;102954.00;5096007;28;21027;-72
2022/01/13 08:05:00;;;;;;;0.50;0.30;;;;;;;4.50;100.00;102958.94;5096274;28;20495;-72
2022/01/13 08:07:26;;;;;;;0.40;0.20;;;;;;;4.55;100.00;102967.22;5096490;28;20812;-72
2022/01/13 08:09:53;;;;;;;0.40;0.40;;;;;;;4.51;100.00;102968.66;5096411;28;20436;-72
2022/01/13 08:12:19;;;;;;;0.40;0.30;;;;;;;4.52;100.00;102957.72;5096399;28;20456;-73
2022/01/13 08:14:45;;;;;;;0.40;0.30;;;;;;;4.55;100.00;102969.91;5096318;28;20447;-72
2022/01/13 08:19:45;;;;;;;0.40;0.20;;;;;;;4.55;100.00;102975.28;5095967;28;20444;-73
2022/01/13 08:19:59;;;;;;;0.40;0.20;;;;;;;4.53;100.00;102977.34;5095796;28;20419;-73
2022/01/13 08:22:25;;;;;;;0.40;0.20;;;;;;;4.54;100.00;102981.66;5096121;28;20539;-72
2022/01/13 08:24:52;;;;;;;0.40;0.30;;;;;;;4.57;100.00;102973.22;5096035;28;20226;-72
2022/01/13 08:27:18;;;;;;;0.40;0.20;;;;;;;4.60;100.00;102969.28;5095786;28;20958;-72
2022/01/13 08:29:45;;;;;;;0.40;0.27;;;;;;;4.62;100.00;102978.81;5096007;28;20452;-72
2022/01/13 08:32:12;;;;;;;0.40;0.20;;;;;;;4.61;100.00;102993.28;5095905;28;20460;-72
2022/01/13 08:34:39;;;;;;;0.40;0.20;;;;;;;4.64;100.00;102992.84;5095958;28;20445;-72
2022/01/13 08:37:06;;;;;;;0.40;0.20;;;;;;;4.67;100.00;102981.72;5095536;28;20945;-72
2022/01/13 08:39:38;;;;;;;0.40;0.20;;;;;;;4.67;100.00;102978.22;5094626;28;20490;-72
2022/01/13 08:42:05;;;;;;;0.40;0.30;;;;;;;4.67;100.00;102978.22;5095743;28;20429;-71
2022/01/13 08:44:31;;;;;;;0.40;0.20;;;;;;;4.67;100.00;102978.22;5095648;28;20484;-70
2022/01/13 08:46:58;;;;;;;0.40;0.20;;;;;;;4.66;100.00;102982.75;5095679;28;20444;-73
2022/01/13 08:49:25;;;;;;;0.40;0.30;;;;;;;4.70;100.00;102980.50;5095327;28;20960;-71
2022/01/13 08:51:54;;;;;;;0.40;0.20;;;;;;;4.71;100.00;102968.72;5095483;28;20448;-70
2022/01/13 08:54:21;;;;;;;0.40;0.30;;;;;;;4.70;100.00;102962.53;5095595;28;20480;-71
2022/01/13 08:56:48;;;;;;;0.50;0.30;;;;;;;4.67;100.00;102956.72;5095764;28;20440;-71
2022/01/13 08:59:14;;;;;;;0.40;0.20;;;;;;;4.68;100.00;102967.25;5095294;28;20453;-70
2022/01/13 09:01:41;;;;;;;0.40;0.20;;;;;;;4.71;100.00;102957.97;5095314;28;20445;-70
2022/01/13 09:04:07;;;;;;;0.47;0.30;;;;;;;4.67;100.00;102964.78;5095445;28;20464;-72
2022/01/13 09:06:35;;;;;;;0.40;0.30;;;;;;;4.68;100.00;102959.22;5095551;28;20826;-71
2022/01/13 09:09:02;;;;;;;0.40;0.20;;;;;;;4.65;100.00;102962.31;5095554;28;20497;-72
2022/01/13 09:11:29;;;;;;;0.40;0.20;;;;;;;4.69;100.00;102957.34;5095773;28;20441;-73
2022/01/13 09:13:57;;;;;;;0.40;0.30;;;;;;;4.68;100.00;102955.69;5095071;28;20468;-74
2022/01/13 09:16:24;;;;;;;0.40;0.20;;;;;;;4.69;100.00;102960.03;5095085;28;20440;-73
2022/01/13 09:19:08;;;;;;;0.40;0.30;;;;;;;4.65;100.00;102962.31;5095053;28;20444;-71
2022/01/13 09:21:38;;;;;;;0.40;0.20;;;;;;;4.69;100.00;102970.75;5094781;28;20906;-73
2022/01/13 09:24:07;;;;;;;0.97;0.97;;;;;;;4.70;100.00;102959.03;5095383;28;20456;-72
2022/01/13 09:26:33;;;;;;;0.40;0.20;;;;;;;4.68;100.00;102961.88;5094851;28;20483;-73
2022/01/13 09:29:00;;;;;;;0.40;0.30;;;;;;;4.70;100.00;102967.06;5094730;28;20436;-72
2022/01/13 09:31:27;;;;;;;0.40;0.30;;;;;;;4.71;100.00;102956.13;5094812;28;20448;-72
2022/01/13 09:33:53;;;;;;;3.93;3.60;;;;;;;4.75;100.00;102941.25;5094926;28;20499;-72
2022/01/13 09:36:20;;;;;;;0.40;0.30;;;;;;;4.75;100.00;102940.44;5096231;28;20452;-72
2022/01/13 09:38:48;;;;;;;0.40;0.30;;;;;;;4.75;100.00;102949.31;5094724;28;20440;-72
2022/01/13 09:41:16;;;;;;;0.40;0.30;;;;;;;4.75;100.00;102941.25;5095075;28;20451;-73
2022/01/13 09:43:44;;;;;;;0.80;0.80;;;;;;;4.71;100.00;102957.97;5094304;28;20843;-72
2022/01/13 09:46:11;;;;;;;0.40;0.30;;;;;;;4.73;100.00;102955.91;5094495;28;20484;-72
2022/01/13 09:48:39;;;;;;;0.40;0.30;;;;;;;4.71;100.00;102961.50;5094206;28;20988;-72
2022/01/13 09:51:06;;;;;;;0.40;0.30;;;;;;;4.71;100.00;102949.94;5094255;28;20472;-72
2022/01/13 09:53:33;;;;;;;0.40;0.30;;;;;;;4.74;100.00;102949.53;5094572;28;20464;-77
2022/01/13 09:56:01;;;;;;;0.40;0.30;;;;;;;4.76;100.00;102960.88;5094384;28;20436;-72
2022/01/13 09:58:28;;;;;;;0.40;0.30;;;;;;;4.77;100.00;102955.31;5094088;28;20938;-72
2022/01/13 10:00:55;;;;;;;0.40;0.30;;;;;;;4.77;100.00;102970.59;5094244;28;20439;-72
2022/01/13 10:03:26;;;;;;;0.40;0.20;;;;;;;4.79;100.00;102971.22;5093706;28;20830;-72
2022/01/13 10:05:55;;;;;;;0.40;0.30;;;;;;;4.79;100.00;102958.63;5094145;28;20468;-72
2022/01/13 10:08:22;;;;;;;0.40;0.30;;;;;;;4.78;100.00;102951.59;5094210;28;20492;-73
2022/01/13 10:10:49;;;;;;;0.40;0.30;;;;;;;4.80;100.00;102937.97;5094059;28;20444;-72
2022/01/13 10:13:29;;;;;;;0.40;0.30;;;;;;;4.79;100.00;102957.81;5094027;28;20448;-72
2022/01/13 10:18:43;;;;;;;0.40;0.30;;;;;;;4.84;100.00;102933.03;5093790;28;20404;-69
2022/01/13 10:21:11;;;;;;;0.40;0.30;;;;;;;4.84;100.00;102927.66;5093873;28;20451;-68
2022/01/13 10:23:37;;;;;;;0.40;0.30;;;;;;;4.85;100.00;102918.56;5093484;28;20460;-68
2022/01/13 10:26:12;;;;;;;0.40;0.30;;;;;;;4.80;100.00;102921.88;5093798;28;20484;-68
2022/01/13 10:28:40;;;;;;;0.40;0.20;;;;;;;4.87;100.00;102911.97;5093821;28;20466;-68
2022/01/13 10:31:07;;;;;;;0.40;0.20;;;;;;;4.84;100.00;102912.38;5093726;28;20445;-69
2022/01/13 10:33:35;;;;;;;0.40;0.20;;;;;;;4.88;100.00;102918.16;5093618;28;21027;-69
2022/01/13 10:36:10;;;;;;;0.40;0.30;;;;;;;4.80;100.00;102922.69;5093665;28;20489;-69
2022/01/13 10:38:53;;;;;;;0.40;0.30;;;;;;;4.86;100.00;102915.66;5093619;28;20447;-69
2022/01/13 10:41:35;;;;;;;0.40;0.30;;;;;;;4.95;100.00;102910.91;5093268;28;20937;-69
2022/01/13 10:44:13;;;;;;;0.40;0.27;;;;;;;4.92;100.00;102916.72;5093245;28;21083;-69
2022/01/13 10:47:00;;;;;;;0.40;0.30;;;;;;;4.96;100.00;102915.28;5093696;28;20512;-69
2022/01/13 10:49:34;;;;;;;0.50;0.27;;;;;;;4.95;100.00;102905.53;5093506;28;20505;-69
2022/01/13 10:52:18;;;;;;;0.40;0.20;;;;;;;4.99;100.00;102909.47;5093067;28;20432;-69
2022/01/13 10:54:44;;;;;;;0.40;0.30;;;;;;;5.02;100.00;102909.06;5093362;28;20499;-68
2022/01/13 10:57:18;;;;;;;0.40;0.30;;;;;;;5.07;100.00;102903.91;5093092;28;20953;-68
2022/01/13 10:59:46;;;;;;;0.40;0.20;;;;;;;5.13;100.00;102899.56;5093341;28;20458;-68
2022/01/13 11:02:13;;;;;;;0.40;0.30;;;;;;;5.10;100.00;102914.25;5092264;28;20480;-69
2022/01/13 11:04:39;;;;;;;0.40;0.20;;;;;;;5.07;100.00;102906.59;5093394;28;20431;-68
2022/01/13 11:07:14;;;;;;;0.40;0.27;;;;;;;5.07;100.00;102907.41;5093195;28;20483;-68
2022/01/13 11:09:42;;;;;;;0.40;0.30;;;;;;;5.11;100.00;102901.63;5093245;28;20432;-69
2022/01/13 11:12:10;;;;;;;0.40;0.20;;;;;;;5.13;100.00;102895.00;5093114;28;20448;-68
2022/01/13 11:14:42;;;;;;;0.40;0.33;;;;;;;5.18;100.00;102892.56;5093184;28;20436;-68
2022/01/13 11:17:11;;;;;;;0.40;0.20;;;;;;;5.22;100.00;102882.19;5093195;28;20413;-68
2022/01/13 11:19:40;;;;;;;0.40;0.30;;;;;;;5.21;100.00;102881.38;5093181;28;20472;-68
2022/01/13 11:22:07;;;;;;;0.40;0.30;;;;;;;5.25;100.00;102882.59;5093051;28;20854;-68
2022/01/13 11:24:33;;;;;;;0.40;0.30;;;;;;;5.25;100.00;102879.09;5093114;28;20468;-68
2022/01/13 11:27:00;;;;;;;0.43;0.33;;;;;;;5.21;100.00;102881.38;5092479;28;20541;-68
2022/01/13 11:29:28;;;;;;;0.40;0.30;;;;;;;5.22;100.00;102874.13;5093012;28;20444;-69
2022/01/13 11:31:57;;;;;;;0.40;0.20;;;;;;;5.27;100.00;102874.34;5093000;28;20494;-69
2022/01/13 11:34:25;;;;;;;0.40;0.30;;;;;;;5.26;100.00;102872.69;5093061;28;20472;-69
2022/01/13 11:36:52;;;;;;;0.40;0.30;;;;;;;5.30;100.00;102869.38;5093065;28;20440;-74
2022/01/13 11:39:35;;;;;;;0.40;0.20;;;;;;;5.36;100.00;102870.41;5093022;28;20953;-78